createdAt,value
2022-10-05T00:00:53.838Z,98344.44
2022-10-05T00:03:22.983Z,98346.69
2022-10-05T00:05:52.326Z,98346.19
2022-10-05T00:08:24.898Z,98343.81
2022-10-05T00:10:53.392Z,98352.66
2022-10-05T00:13:23.524Z,98350.19
2022-10-05T00:15:53.520Z,98350.31
2022-10-05T00:18:22.064Z,98341.72
2022-10-05T00:20:50.549Z,98348.53
2022-10-05T00:23:25.145Z,98351.22
2022-10-05T00:25:54.179Z,98359.22
2022-10-05T00:28:30.665Z,98363.50
2022-10-05T00:30:59.649Z,98356.13
2022-10-05T00:33:28.179Z,98360.31
2022-10-05T00:35:56.509Z,98361.09
2022-10-05T00:38:24.895Z,98370.22
2022-10-05T00:41:07.243Z,98360.53
2022-10-05T00:44:07.670Z,98370.41
2022-10-05T00:46:53.480Z,98371.16
2022-10-05T00:49:21.692Z,98374.94
2022-10-05T00:52:02.192Z,98371.03
2022-10-05T00:54:44.433Z,98375.53
2022-10-05T00:57:19.287Z,98389.75
2022-10-05T01:00:07.427Z,98385.38
2022-10-05T01:02:51.040Z,98387.03
2022-10-05T01:05:45.959Z,98390.72
2022-10-05T01:08:26.769Z,98384.38
2022-10-05T01:11:18.491Z,98388.66
2022-10-05T01:13:49.715Z,98385.97
2022-10-05T01:16:46.019Z,98388.41
2022-10-05T01:19:53.413Z,98394.81
2022-10-05T01:22:36.956Z,98398.59
2022-10-05T01:25:21.711Z,98403.22
2022-10-05T01:28:14.167Z,98403.91
2022-10-05T01:31:17.726Z,98408.34
2022-10-05T01:34:24.706Z,98412.88
2022-10-05T01:37:04.799Z,98433.22
2022-10-05T01:39:56.178Z,98430.66
2022-10-05T01:42:28.997Z,98432.06
2022-10-05T01:45:14.845Z,98432.25
2022-10-05T01:47:45.972Z,98433.69
2022-10-05T01:50:29.112Z,98438.66
2022-10-05T01:53:25.555Z,98430.06
2022-10-05T01:56:33.631Z,98427.84
2022-10-05T01:59:08.324Z,98435.81
2022-10-05T02:01:41.716Z,98423.66
2022-10-05T02:04:29.559Z,98421.28
2022-10-05T02:07:03.643Z,98429.97
2022-10-05T02:09:37.745Z,98430.16
2022-10-05T02:12:13.715Z,98422.94
2022-10-05T02:14:47.785Z,98430.50
2022-10-05T02:17:21.923Z,98431.78
2022-10-05T02:19:56.918Z,98431.00
2022-10-05T02:22:34.404Z,98428.19
2022-10-05T02:25:09.494Z,98421.47
2022-10-05T02:28:02.508Z,98432.28
2022-10-05T02:30:32.334Z,98428.59
2022-10-05T02:33:10.758Z,98432.34
2022-10-05T02:35:39.151Z,98436.00
2022-10-05T02:38:52.040Z,98434.03
2022-10-05T02:41:43.280Z,98429.78
2022-10-05T02:44:27.047Z,98433.69
2022-10-05T02:46:57.395Z,98438.75
2022-10-05T02:49:45.720Z,98433.84
2022-10-05T02:52:49.601Z,98444.53
2022-10-05T02:55:25.630Z,98441.66
2022-10-05T02:58:00.517Z,98444.22
2022-10-05T03:00:32.380Z,98442.75
2022-10-05T03:03:22.789Z,98448.56
2022-10-05T03:06:05.746Z,98461.31
2022-10-05T03:09:02.257Z,98458.03
2022-10-05T03:12:04.402Z,98464.31
2022-10-05T03:14:57.046Z,98462.66
2022-10-05T03:17:27.885Z,98459.75
2022-10-05T03:20:28.880Z,98472.25
2022-10-05T03:23:01.807Z,98473.06
2022-10-05T03:25:41.989Z,98479.56
2022-10-05T03:28:28.012Z,98484.03
2022-10-05T03:31:11.381Z,98490.19
2022-10-05T03:33:49.509Z,98501.03
2022-10-05T03:36:47.629Z,98486.47
2022-10-05T03:39:16.431Z,98493.53
2022-10-05T03:41:45.244Z,98493.44
2022-10-05T03:44:23.166Z,98504.03
2022-10-05T03:47:12.784Z,98509.38
2022-10-05T03:50:06.334Z,98513.88
2022-10-05T03:52:37.026Z,98507.94
2022-10-05T03:55:27.949Z,98512.81
2022-10-05T03:57:58.341Z,98524.34
2022-10-05T04:00:29.116Z,98526.28
2022-10-05T04:03:37.777Z,98518.34
2022-10-05T04:06:30.271Z,98524.88
2022-10-05T04:09:03.355Z,98522.50
2022-10-05T04:11:40.934Z,98525.56
2022-10-05T04:14:19.472Z,98530.16
2022-10-05T04:16:50.353Z,98529.38
2022-10-05T04:19:24.108Z,98535.97
2022-10-05T04:22:22.354Z,98541.59
2022-10-05T04:24:59.375Z,98532.78
2022-10-05T04:27:32.200Z,98531.75
2022-10-05T04:30:05.589Z,98539.63
2022-10-05T04:32:58.055Z,98533.63
2022-10-05T04:35:43.902Z,98533.06
2022-10-05T04:38:40.455Z,98547.41
2022-10-05T04:41:27.586Z,98537.31
2022-10-05T04:44:17.778Z,98542.28
2022-10-05T04:47:04.957Z,98538.25
2022-10-05T04:50:09.463Z,98536.78
2022-10-05T04:52:59.666Z,98535.69
2022-10-05T04:55:36.879Z,98537.38
2022-10-05T04:58:41.418Z,98540.84
2022-10-05T05:01:49.087Z,98544.78
2022-10-05T05:04:36.477Z,98535.44
2022-10-05T05:07:41.600Z,98542.63
2022-10-05T05:10:54.662Z,98542.63
2022-10-05T05:13:47.681Z,98559.50
2022-10-05T05:16:29.579Z,98558.97
2022-10-05T05:19:18.708Z,98574.72
2022-10-05T05:22:18.189Z,98577.81
2022-10-05T05:25:17.701Z,98580.47
2022-10-05T05:27:55.096Z,98583.66
2022-10-05T05:30:26.150Z,98578.91
2022-10-05T05:33:20.869Z,98583.44
2022-10-05T05:36:23.015Z,98590.56
2022-10-05T05:39:32.329Z,98589.19
2022-10-05T05:42:11.951Z,98587.81
2022-10-05T05:44:44.442Z,98583.25
2022-10-05T05:47:18.419Z,98589.31
2022-10-05T05:50:06.693Z,98588.09
2022-10-05T05:52:40.480Z,98582.13
2022-10-05T05:55:26.447Z,98588.53
2022-10-05T05:58:25.798Z,98585.16
2022-10-05T06:01:02.236Z,98595.19
2022-10-05T06:03:58.604Z,98603.97
2022-10-05T06:06:34.800Z,98594.56
2022-10-05T06:09:11.944Z,98599.69
2022-10-05T06:11:57.831Z,98605.78
2022-10-05T06:14:34.610Z,98606.44
2022-10-05T06:17:29.642Z,98610.97
2022-10-05T06:20:02.519Z,98605.81
2022-10-05T06:22:35.599Z,98615.75
2022-10-05T06:25:16.010Z,98612.44
2022-10-05T06:28:15.255Z,98610.44
2022-10-05T06:31:04.988Z,98620.53
2022-10-05T06:33:49.708Z,98621.75
2022-10-05T06:36:29.951Z,98630.16
2022-10-05T06:39:36.974Z,98630.97
2022-10-05T06:42:26.742Z,98639.94
2022-10-05T06:45:26.649Z,98642.41
2022-10-05T06:48:30.953Z,98646.94
2022-10-05T06:51:24.282Z,98646.22
2022-10-05T06:54:29.617Z,98651.34
2022-10-05T06:57:11.066Z,98650.59
2022-10-05T06:59:54.636Z,98649.38
2022-10-05T07:02:41.553Z,98645.22
2022-10-05T07:05:46.450Z,98647.75
2022-10-05T07:08:21.146Z,98647.84
2022-10-05T07:11:04.922Z,98645.69
2022-10-05T07:14:14.218Z,98650.34
2022-10-05T07:16:56.865Z,98647.66
2022-10-05T07:19:56.120Z,98647.66
2022-10-05T07:22:39.715Z,98644.59
2022-10-05T07:25:20.941Z,98638.50
2022-10-05T07:27:52.008Z,98641.69
2022-10-05T07:30:21.156Z,98646.78
2022-10-05T07:33:10.103Z,98630.06
2022-10-05T07:36:01.373Z,98641.28
2022-10-05T07:38:34.092Z,98634.56
2022-10-05T07:41:07.480Z,98642.19
2022-10-05T07:44:00.475Z,98644.78
2022-10-05T07:46:49.496Z,98649.44
2022-10-05T07:49:44.677Z,98642.06
2022-10-05T07:52:24.307Z,98654.19
2022-10-05T07:54:59.857Z,98650.22
2022-10-05T07:57:34.841Z,98653.41
2022-10-05T08:00:10.141Z,98654.19
2022-10-05T08:02:52.887Z,98648.81
2022-10-05T08:05:32.252Z,98657.50
2022-10-05T08:08:22.955Z,98663.31
2022-10-05T08:11:13.240Z,98657.28
2022-10-05T08:13:55.302Z,98656.78
2022-10-05T08:16:25.529Z,98652.09
2022-10-05T08:19:07.004Z,98654.22
2022-10-05T08:21:40.571Z,98653.69
2022-10-05T08:24:44.314Z,98670.34
2022-10-05T08:27:34.510Z,98662.44
2022-10-05T08:30:04.866Z,98654.34
2022-10-05T08:32:55.909Z,98661.13
2022-10-05T08:35:27.394Z,98662.44
2022-10-05T08:37:55.833Z,98644.41
2022-10-05T08:40:31.299Z,98647.41
2022-10-05T08:43:18.066Z,98651.13
2022-10-05T08:46:09.864Z,98656.19
2022-10-05T08:48:54.688Z,98649.19
2022-10-05T08:51:40.963Z,98638.97
2022-10-05T08:54:19.217Z,98646.81
2022-10-05T08:56:56.699Z,98646.09
2022-10-05T08:59:58.344Z,98638.50
2022-10-05T09:02:50.871Z,98642.63
2022-10-05T09:05:53.049Z,98638.28
2022-10-05T09:08:33.367Z,98645.78
2022-10-05T09:11:17.516Z,98648.31
2022-10-05T09:14:05.719Z,98636.53
2022-10-05T09:16:44.959Z,98634.25
2022-10-05T09:19:34.534Z,98649.22
2022-10-05T09:22:36.701Z,98640.91
2022-10-05T09:25:24.441Z,98640.25
2022-10-05T09:27:57.721Z,98648.41
2022-10-05T09:30:46.754Z,98646.22
2022-10-05T09:33:26.205Z,98642.63
2022-10-05T09:36:09.567Z,98642.16
2022-10-05T09:38:59.892Z,98630.91
2022-10-05T09:41:40.215Z,98629.50
2022-10-05T09:44:37.719Z,98637.59
2022-10-05T09:47:31.192Z,98630.69
2022-10-05T09:50:14.317Z,98633.91
2022-10-05T09:53:05.153Z,98633.47
2022-10-05T09:55:54.674Z,98638.16
2022-10-05T09:58:46.115Z,98637.66
2022-10-05T10:01:33.721Z,98634.69
2022-10-05T10:04:31.976Z,98629.94
2022-10-05T10:07:38.527Z,98644.28
2022-10-05T10:10:44.248Z,98641.06
2022-10-05T10:13:41.914Z,98652.44
2022-10-05T10:16:33.430Z,98636.34
2022-10-05T10:19:26.676Z,98639.22
2022-10-05T10:21:57.748Z,98635.72
2022-10-05T10:25:03.652Z,98641.03
2022-10-05T10:27:48.049Z,98637.22
2022-10-05T10:30:47.213Z,98630.91
2022-10-05T10:33:43.920Z,98625.44
2022-10-05T10:36:17.528Z,98631.00
2022-10-05T10:39:12.460Z,98615.25
2022-10-05T10:42:05.322Z,98613.88
2022-10-05T10:45:07.489Z,98605.88
2022-10-05T10:48:00.692Z,98601.94
2022-10-05T10:50:57.598Z,98608.84
2022-10-05T10:53:40.997Z,98602.03
2022-10-05T10:56:21.124Z,98598.03
2022-10-05T10:59:17.560Z,98593.28
2022-10-05T11:02:09.747Z,98583.41
2022-10-05T11:04:56.849Z,98577.13
2022-10-05T11:07:27.968Z,98573.63
2022-10-05T11:10:04.348Z,98575.38
2022-10-05T11:12:50.686Z,98576.44
2022-10-05T11:15:50.021Z,98572.00
2022-10-05T11:18:21.032Z,98567.53
2022-10-05T11:21:07.481Z,98558.88
2022-10-05T11:24:06.894Z,98558.44
2022-10-05T11:26:42.908Z,98565.41
2022-10-05T11:29:23.591Z,98560.09
2022-10-05T11:32:44.607Z,98555.13
2022-10-05T11:35:38.634Z,98548.91
2022-10-05T11:38:13.332Z,98560.56
2022-10-05T11:40:47.950Z,98557.25
2022-10-05T11:43:34.146Z,98563.94
2022-10-05T11:46:11.261Z,98560.44
2022-10-05T11:48:55.032Z,98550.34
2022-10-05T11:51:46.175Z,98550.34
2022-10-05T11:54:17.883Z,98549.47
2022-10-05T11:57:09.781Z,98553.00
2022-10-05T11:59:53.498Z,98561.47
2022-10-05T12:02:38.907Z,98547.66
2022-10-05T12:05:32.691Z,98547.03
2022-10-05T12:08:04.869Z,98544.81
2022-10-05T12:10:49.176Z,98539.50
2022-10-05T12:13:59.158Z,98543.88
2022-10-05T12:16:57.382Z,98538.25
2022-10-05T12:19:41.403Z,98549.09
2022-10-05T12:22:15.674Z,98545.78
2022-10-05T12:25:03.436Z,98544.34
2022-10-05T12:27:37.695Z,98552.44
2022-10-05T12:30:15.883Z,98548.34
2022-10-05T12:33:05.400Z,98546.09
2022-10-05T12:35:48.313Z,98536.50
2022-10-05T12:38:29.589Z,98539.09
2022-10-05T12:41:25.182Z,98534.31
2022-10-05T12:44:19.755Z,98520.16
2022-10-05T12:46:56.801Z,98522.66
2022-10-05T12:49:33.665Z,98520.47
2022-10-05T12:52:03.334Z,98524.75
2022-10-05T12:54:53.785Z,98531.25
2022-10-05T12:57:39.430Z,98531.34
2022-10-05T13:00:13.512Z,98539.44
2022-10-05T13:02:48.493Z,98542.97
2022-10-05T13:05:38.336Z,98527.91
2022-10-05T13:08:29.561Z,98533.22
2022-10-05T13:11:21.402Z,98518.38
2022-10-05T13:13:53.254Z,98527.53
2022-10-05T13:16:45.238Z,98517.53
2022-10-05T13:19:16.668Z,98524.78
2022-10-05T13:21:57.125Z,98507.47
2022-10-05T13:25:19.358Z,98504.25
2022-10-05T13:27:49.680Z,98503.09
2022-10-05T13:30:21.059Z,98498.00
2022-10-05T13:33:21.622Z,98492.34
2022-10-05T13:35:52.686Z,98487.09
2022-10-05T13:38:21.054Z,98486.53
2022-10-05T13:40:55.130Z,98489.34
2022-10-05T13:43:40.723Z,98494.97
2022-10-05T13:46:23.949Z,98484.22
2022-10-05T13:49:05.097Z,98490.16
2022-10-05T13:51:52.692Z,98483.38
2022-10-05T13:54:28.530Z,98487.53
2022-10-05T13:57:17.534Z,98484.06
2022-10-05T13:59:57.976Z,98484.41
2022-10-05T14:02:38.783Z,98493.72
2022-10-05T14:05:19.295Z,98490.78
2022-10-05T14:07:50.623Z,98486.44
2022-10-05T14:10:37.895Z,98483.25
2022-10-05T14:13:24.633Z,98484.78
2022-10-05T14:16:05.479Z,98483.16
2022-10-05T14:18:34.532Z,98492.16
2022-10-05T14:21:08.933Z,98486.13
2022-10-05T14:23:38.643Z,98487.53
2022-10-05T14:26:25.271Z,98482.09
2022-10-05T14:29:02.114Z,98489.75
2022-10-05T14:31:35.587Z,98484.22
2022-10-05T14:34:29.235Z,98482.94
2022-10-05T14:37:18.425Z,98485.25
2022-10-05T14:39:48.103Z,98472.34
2022-10-05T14:42:25.103Z,98475.03
2022-10-05T14:45:11.945Z,98468.06
2022-10-05T14:48:06.503Z,98466.94
2022-10-05T14:50:35.068Z,98472.44
2022-10-05T14:53:03.447Z,98475.53
2022-10-05T14:55:47.404Z,98476.56
2022-10-05T14:58:37.767Z,98479.25
2022-10-05T15:01:27.902Z,98482.88
2022-10-05T15:04:00.880Z,98490.56
2022-10-05T15:07:05.848Z,98491.16
2022-10-05T15:09:42.268Z,98488.19
2022-10-05T15:12:10.715Z,98500.81
2022-10-05T15:14:41.312Z,98500.09
2022-10-05T15:17:20.041Z,98511.75
2022-10-05T15:20:05.449Z,98512.78
2022-10-05T15:22:57.498Z,98509.94
2022-10-05T15:25:37.390Z,98506.72
2022-10-05T15:28:30.794Z,98508.22
2022-10-05T15:31:04.858Z,98508.16
2022-10-05T15:33:47.117Z,98510.31
2022-10-05T15:36:29.907Z,98513.25
2022-10-05T15:39:04.384Z,98515.00
2022-10-05T15:41:55.677Z,98515.41
2022-10-05T15:44:43.508Z,98519.50
2022-10-05T15:47:19.582Z,98526.81
2022-10-05T15:50:11.746Z,98536.78
2022-10-05T15:53:03.249Z,98533.53
2022-10-05T15:55:49.998Z,98546.53
2022-10-05T15:58:53.878Z,98547.91
2022-10-05T16:01:31.606Z,98547.91
2022-10-05T16:04:21.860Z,98541.34
2022-10-05T16:07:16.928Z,98562.47
2022-10-05T16:09:48.598Z,98552.81
2022-10-05T16:12:57.570Z,98563.47
2022-10-05T16:15:34.271Z,98563.03
2022-10-05T16:18:21.581Z,98567.25
2022-10-05T16:21:29.952Z,98561.97
2022-10-05T16:24:06.983Z,98577.03
2022-10-05T16:27:00.108Z,98573.59
2022-10-05T16:29:35.905Z,98567.16
2022-10-05T16:32:33.468Z,98578.50
2022-10-05T16:35:20.247Z,98582.03
2022-10-05T16:37:59.036Z,98586.78
2022-10-05T16:40:42.686Z,98601.31
2022-10-05T16:43:37.386Z,98595.22
2022-10-05T16:46:14.608Z,98590.44
2022-10-05T16:49:04.506Z,98588.97
2022-10-05T16:51:54.147Z,98593.50
2022-10-05T16:54:24.812Z,98605.16
2022-10-05T16:57:05.209Z,98599.94
2022-10-05T17:00:05.391Z,98600.41
2022-10-05T17:02:38.209Z,98609.53
2022-10-05T17:05:38.946Z,98605.91
2022-10-05T17:08:10.098Z,98614.66
2022-10-05T17:10:51.870Z,98616.38
2022-10-05T17:13:45.408Z,98617.47
2022-10-05T17:16:37.919Z,98621.34
2022-10-05T17:19:34.543Z,98615.69
2022-10-05T17:22:23.836Z,98620.91
2022-10-05T17:25:03.136Z,98621.88
2022-10-05T17:28:16.123Z,98628.53
2022-10-05T17:30:59.112Z,98631.84
2022-10-05T17:33:29.649Z,98636.84
2022-10-05T17:36:05.070Z,98637.19
2022-10-05T17:38:38.340Z,98630.75
2022-10-05T17:41:21.623Z,98640.50
2022-10-05T17:44:16.436Z,98635.59
2022-10-05T17:46:51.909Z,98649.94
2022-10-05T17:49:23.204Z,98651.34
2022-10-05T17:52:09.749Z,98644.44
2022-10-05T17:55:02.917Z,98651.75
2022-10-05T17:57:31.860Z,98660.31
2022-10-05T18:00:02.136Z,98660.16
2022-10-05T18:02:36.648Z,98665.31
2022-10-05T18:05:16.395Z,98663.91
2022-10-05T18:07:48.929Z,98658.97
2022-10-05T18:10:29.281Z,98661.38
2022-10-05T18:13:00.644Z,98668.88
2022-10-05T18:15:29.895Z,98666.94
2022-10-05T18:18:19.907Z,98664.00
2022-10-05T18:21:20.968Z,98660.41
2022-10-05T18:24:05.401Z,98669.97
2022-10-05T18:26:44.783Z,98669.16
2022-10-05T18:29:58.634Z,98680.84
2022-10-05T18:32:32.944Z,98664.75
2022-10-05T18:35:04.751Z,98671.25
2022-10-05T18:37:45.467Z,98672.50
2022-10-05T18:40:32.417Z,98673.22
2022-10-05T18:43:10.428Z,98677.44
2022-10-05T18:46:01.195Z,98671.63
2022-10-05T18:48:47.955Z,98674.25
2022-10-05T18:51:27.589Z,98684.41
2022-10-05T18:54:17.811Z,98683.03
2022-10-05T18:56:50.270Z,98678.59
2022-10-05T18:59:37.619Z,98688.56
2022-10-05T19:02:25.103Z,98683.75
2022-10-05T19:05:42.516Z,98687.41
2022-10-05T19:08:40.919Z,98693.16
2022-10-05T19:11:59.259Z,98686.94
2022-10-05T19:15:16.731Z,98692.16
2022-10-05T19:18:18.771Z,98690.25
2022-10-05T19:21:59.417Z,98692.69
2022-10-05T19:24:58.603Z,98699.13
2022-10-05T19:28:31.253Z,98695.47
2022-10-05T19:31:38.713Z,98702.59
2022-10-05T19:34:46.387Z,98707.97
2022-10-05T19:37:31.337Z,98707.75
2022-10-05T19:40:09.728Z,98712.81
2022-10-05T19:43:19.930Z,98714.94
2022-10-05T19:46:20.251Z,98710.25
2022-10-05T19:48:50.304Z,98709.69
2022-10-05T19:51:25.809Z,98710.16
2022-10-05T19:53:56.415Z,98713.34
2022-10-05T19:56:31.465Z,98712.19
2022-10-05T19:59:11.059Z,98714.19
2022-10-05T20:01:40.621Z,98720.47
2022-10-05T20:04:10.183Z,98716.06
2022-10-05T20:06:39.921Z,98722.09
2022-10-05T20:09:21.683Z,98732.75
2022-10-05T20:11:53.269Z,98720.91
2022-10-05T20:14:31.538Z,98728.25
2022-10-05T20:17:45.034Z,98728.31
2022-10-05T20:20:29.676Z,98735.09
2022-10-05T20:23:21.319Z,98729.41
2022-10-05T20:26:09.764Z,98734.94
2022-10-05T20:28:38.255Z,98729.53
2022-10-05T20:31:09.607Z,98735.25
2022-10-05T20:33:39.276Z,98728.97
2022-10-05T20:36:08.894Z,98731.69
2022-10-05T20:38:41.044Z,98729.81
2022-10-05T20:41:09.686Z,98733.59
2022-10-05T20:43:39.592Z,98736.59
2022-10-05T20:46:07.907Z,98732.03
2022-10-05T20:48:36.811Z,98735.78
2022-10-05T20:51:05.236Z,98725.56
2022-10-05T20:53:33.985Z,98733.31
2022-10-05T20:56:04.877Z,98728.09
2022-10-05T20:58:33.255Z,98721.84
2022-10-05T21:01:19.308Z,98723.59
2022-10-05T21:03:48.340Z,98723.06
2022-10-05T21:06:21.406Z,98725.47
2022-10-05T21:08:51.641Z,98724.31
2022-10-05T21:11:20.013Z,98715.53
2022-10-05T21:13:49.746Z,98723.69
2022-10-05T21:16:18.778Z,98724.84
2022-10-05T21:18:48.929Z,98726.59
2022-10-05T21:21:17.580Z,98732.88
2022-10-05T21:23:46.879Z,98719.81
2022-10-05T21:26:15.630Z,98724.41
2022-10-05T21:28:44.111Z,98719.88
2022-10-05T21:31:12.579Z,98732.25
2022-10-05T21:33:41.010Z,98722.84
2022-10-05T21:36:10.363Z,98730.19
2022-10-05T21:38:38.751Z,98726.09
2022-10-05T21:41:08.014Z,98724.69
2022-10-05T21:43:36.445Z,98719.88
2022-10-05T21:46:04.963Z,98727.47
2022-10-05T21:48:33.374Z,98727.94
2022-10-05T21:51:01.827Z,98732.84
2022-10-05T21:53:35.133Z,98724.31
2022-10-05T21:56:04.766Z,98733.91
2022-10-05T21:58:33.099Z,98735.34
2022-10-05T22:01:01.493Z,98727.06
2022-10-05T22:03:30.329Z,98720.69
2022-10-05T22:05:58.942Z,98728.88
2022-10-05T22:08:29.141Z,98722.03
2022-10-05T22:10:58.142Z,98724.16
2022-10-05T22:13:27.112Z,98721.31
2022-10-05T22:15:56.497Z,98729.44
2022-10-05T22:18:25.815Z,98705.69
2022-10-05T22:20:54.582Z,98704.44
2022-10-05T22:23:22.983Z,98705.69
2022-10-05T22:25:51.387Z,98708.72
2022-10-05T22:28:19.804Z,98711.38
2022-10-05T22:30:48.225Z,98713.09
2022-10-05T22:33:16.829Z,98706.94
2022-10-05T22:35:45.268Z,98709.59
2022-10-05T22:38:13.612Z,98709.59
2022-10-05T22:40:41.954Z,98706.19
2022-10-05T22:43:12.570Z,98699.88
2022-10-05T22:45:41.026Z,98702.47
2022-10-05T22:48:09.339Z,98703.44
2022-10-05T22:50:37.810Z,98696.56
2022-10-05T22:53:06.083Z,98698.22
2022-10-05T22:55:34.380Z,98701.38
2022-10-05T22:58:02.727Z,98691.31
2022-10-05T23:00:53.320Z,98697.09
2022-10-05T23:03:20.267Z,98696.03
2022-10-05T23:05:48.673Z,98706.16
2022-10-05T23:08:17.217Z,98700.78
2022-10-05T23:10:45.531Z,98701.25
2022-10-05T23:13:13.905Z,98711.06
2022-10-05T23:15:42.782Z,98710.59
2022-10-05T23:18:13.033Z,98716.09
2022-10-05T23:20:41.478Z,98705.50
2022-10-05T23:23:09.849Z,98702.03
2022-10-05T23:25:39.239Z,98704.78
2022-10-05T23:28:07.622Z,98714.72
2022-10-05T23:30:36.106Z,98711.81
2022-10-05T23:33:04.520Z,98698.91
2022-10-05T23:35:32.918Z,98699.31
2022-10-05T23:38:01.271Z,98701.22
2022-10-05T23:40:29.793Z,98703.00
2022-10-05T23:42:58.561Z,98703.72
2022-10-05T23:45:26.948Z,98700.31
2022-10-05T23:47:55.309Z,98687.84
2022-10-05T23:50:25.405Z,98694.22
2022-10-05T23:52:54.568Z,98698.84
2022-10-05T23:55:22.803Z,98706.25
2022-10-05T23:57:51.982Z,98704.16
